Aérodrome :
LOGIN :

S'inscrire | Disclaimer

   EN    FR    IT 

 










Légende :    VFR   VFR Marginal   IFR   IFR Intensif   IFR Très Intensif
Visi : 
Plafond : 
>= 8 km
>= 3000ft
5 à 8 km
1000 à 3000 ft
1500m à 5 km
500 à 1000 ft
800 à 1500m
200 à 500 ft
< 800m
< 200 ft
Symboles :   Orages  Brouillard  Fortes neiges  Fortes précipitations  Vent > 20 kt
SIGMETs :   Divers  Orages  Givrage  Turbulence  Onde Orograph.  Cendres Volcan.






- Altitude de l'aérodrome : 1058 ft
- Code IATA : SCN


EDDR - Saarbrücken

DERNIER METAR :
  • 202120Z 21015KT CAVOK 09/02 Q1000 NOSIG

METARs EXPIRÉS :
  • 202050Z 21014KT CAVOK 08/02 Q1000 NOSIG
  • 202020Z 20014KT 170V230 CAVOK 08/01 Q1000 NOSIG
  • 201950Z 20012KT 170V230 CAVOK 08/01 Q1000 NOSIG
  • 201920Z 19011KT CAVOK 09/01 Q1001 NOSIG
  • 201850Z 19010KT CAVOK 09/02 Q1001 NOSIG

TAF TAF EDDR
Valide du 20 à 18h jusqu'au 21 à 18h UTC


201700Z 2018/2118 20010KT CAVOK
BECMG 2020/2024 21015G25KT
PROB30
TEMPO 2103/2108 22020G40KT SHRA BKN014CB
PROB40
TEMPO 2108/2112 RA BKN012
PROB40
TEMPO 2116/2118 RA BKN012



MET'MAP, la Météo Aéronautique d'un coup d'oeil ! - Copyright ORBIFLY Décembre 2007 - Disclaimer

ORBIFLY MET'MAP TEAM :

Programmation & Développement : Alexandra Zaïnal
Sur une idée originale de : Baudouin d'Aumeries
Assistance à la programmation : Marc-Olivier Méhu
Soutien technique & logistique : Manuel Goepfert

Contact : metmap@orbifly.com




SOURCES & CREDITS :

   NOAA